createdAt,value
2017-10-11T00:01:03.929Z,13.73
2017-10-11T00:03:33.221Z,13.78
2017-10-11T00:06:02.542Z,13.73
2017-10-11T00:08:30.913Z,13.74
2017-10-11T00:11:00.216Z,13.72
2017-10-11T00:13:31.682Z,13.79
2017-10-11T00:16:00.037Z,13.72
2017-10-11T00:18:28.810Z,13.74
2017-10-11T00:20:57.139Z,13.77
2017-10-11T00:23:26.707Z,13.76
2017-10-11T00:25:56.097Z,13.79
2017-10-11T00:28:25.599Z,13.74
2017-10-11T00:30:54.341Z,13.73
2017-10-11T00:33:22.663Z,13.72
2017-10-11T00:35:51.073Z,13.73
2017-10-11T00:38:20.368Z,13.70
2017-10-11T00:40:49.727Z,13.69
2017-10-11T00:43:18.074Z,13.71
2017-10-11T00:45:46.485Z,13.72
2017-10-11T00:48:14.849Z,13.78
2017-10-11T00:50:43.186Z,13.80
2017-10-11T00:53:12.752Z,13.79
2017-10-11T00:55:41.170Z,13.76
2017-10-11T00:58:10.485Z,13.73
2017-10-11T01:00:40.509Z,13.69
2017-10-11T01:03:09.682Z,13.69
2017-10-11T01:05:38.092Z,13.69
2017-10-11T01:08:06.462Z,13.70
2017-10-11T01:10:35.773Z,13.75
2017-10-11T01:13:05.071Z,13.78
2017-10-11T01:15:34.352Z,13.80
2017-10-11T01:18:03.704Z,13.77
2017-10-11T01:20:34.182Z,13.80
2017-10-11T01:23:03.499Z,13.78
2017-10-11T01:25:32.853Z,13.76
2017-10-11T01:28:02.133Z,13.79
2017-10-11T01:30:30.470Z,13.85
2017-10-11T01:32:59.788Z,13.86
2017-10-11T01:35:29.097Z,13.86
2017-10-11T01:37:57.432Z,13.91
2017-10-11T01:40:30.494Z,13.91
2017-10-11T01:42:59.155Z,13.94
2017-10-11T01:45:28.458Z,13.93
2017-10-11T01:47:56.807Z,13.94
2017-10-11T01:50:25.200Z,13.95
2017-10-11T01:52:55.467Z,13.94
2017-10-11T01:55:23.794Z,13.83
2017-10-11T01:57:52.204Z,13.77
2017-10-11T02:00:20.624Z,13.76
2017-10-11T02:02:49.369Z,13.72
2017-10-11T02:05:18.854Z,13.79
2017-10-11T02:07:48.177Z,13.79
2017-10-11T02:10:16.569Z,13.82
2017-10-11T02:12:44.952Z,13.86
2017-10-11T02:15:13.712Z,13.84
2017-10-11T02:17:42.040Z,13.86
2017-10-11T02:20:10.369Z,13.88
2017-10-11T02:22:39.668Z,13.85
2017-10-11T02:25:08.972Z,13.86
2017-10-11T02:27:38.296Z,13.83
2017-10-11T02:42:09.685Z,13.84
2017-10-11T02:44:38.254Z,13.83
2017-10-11T02:47:06.605Z,13.84
2017-10-11T02:49:34.933Z,13.83
2017-10-11T02:52:04.262Z,13.78
2017-10-11T02:54:33.572Z,13.80
2017-10-11T02:57:01.938Z,13.82
2017-10-11T02:59:31.255Z,13.84
2017-10-11T03:01:59.610Z,13.87
2017-10-11T03:04:28.016Z,13.86
2017-10-11T03:06:56.379Z,13.87
2017-10-11T03:09:25.672Z,13.83
2017-10-11T03:11:54.997Z,13.87
2017-10-11T03:14:23.343Z,13.80
2017-10-11T03:16:51.743Z,13.83
2017-10-11T03:19:21.105Z,13.88
2017-10-11T03:21:49.418Z,13.83
2017-10-11T03:24:18.784Z,13.87
2017-10-11T03:26:48.637Z,13.85
2017-10-11T03:29:18.048Z,13.77
2017-10-11T03:31:47.165Z,13.82
2017-10-11T03:34:15.617Z,13.77
2017-10-11T03:36:45.328Z,13.80
2017-10-11T03:39:14.511Z,13.86
2017-10-11T03:41:42.899Z,13.76
2017-10-11T03:44:11.335Z,13.75
2017-10-11T03:46:39.693Z,13.69
2017-10-11T03:49:08.071Z,13.68
2017-10-11T03:51:36.436Z,13.69
2017-10-11T03:54:05.827Z,13.63
2017-10-11T03:56:34.170Z,13.59
2017-10-11T03:59:02.534Z,13.56
2017-10-11T04:01:30.926Z,13.48
2017-10-11T04:04:02.585Z,13.48
2017-10-11T04:06:31.019Z,13.45
2017-10-11T04:09:00.352Z,13.35
2017-10-11T04:11:28.680Z,13.33
2017-10-11T04:13:57.091Z,13.38
2017-10-11T04:16:25.460Z,13.22
2017-10-11T04:18:55.083Z,13.23
2017-10-11T04:21:23.458Z,13.25
2017-10-11T04:23:52.753Z,13.27
2017-10-11T04:26:22.027Z,13.21
2017-10-11T04:28:50.440Z,13.17
2017-10-11T04:31:19.536Z,13.18
2017-10-11T04:33:47.868Z,13.14
2017-10-11T04:36:16.229Z,13.14
2017-10-11T04:38:44.558Z,13.13
2017-10-11T04:41:14.614Z,13.14
2017-10-11T04:43:42.933Z,13.06
2017-10-11T04:46:11.287Z,13.03
2017-10-11T04:48:39.649Z,13.06
2017-10-11T04:51:08.311Z,13.16
2017-10-11T04:53:37.590Z,13.13
2017-10-11T04:56:06.913Z,13.10
2017-10-11T04:58:36.297Z,13.10
2017-10-11T05:01:04.613Z,13.13
2017-10-11T05:03:33.095Z,13.16
2017-10-11T05:06:01.487Z,13.17
2017-10-11T05:08:30.649Z,13.14
2017-10-11T05:10:59.961Z,13.17
2017-10-11T05:13:30.272Z,13.20
2017-10-11T05:15:58.582Z,13.16
2017-10-11T05:18:26.927Z,13.17
2017-10-11T05:20:55.342Z,13.16
2017-10-11T05:23:23.700Z,13.18
2017-10-11T05:25:52.816Z,13.18
2017-10-11T05:28:21.134Z,13.18
2017-10-11T05:30:49.491Z,13.22
2017-10-11T05:33:17.815Z,13.19
2017-10-11T05:35:46.241Z,13.16
2017-10-11T05:38:15.530Z,13.21
2017-10-11T05:40:44.803Z,13.21
2017-10-11T05:43:13.246Z,13.24
2017-10-11T05:45:41.582Z,13.27
2017-10-11T05:48:10.899Z,13.22
2017-10-11T05:50:39.303Z,13.25
2017-10-11T05:53:07.642Z,13.23
2017-10-11T05:55:36.739Z,13.21
2017-10-11T05:58:05.100Z,13.24
2017-10-11T06:00:33.453Z,13.20
2017-10-11T06:03:02.707Z,13.15
2017-10-11T06:05:31.096Z,13.14
2017-10-11T06:07:59.430Z,13.04
2017-10-11T06:10:27.822Z,13.02
2017-10-11T06:12:56.248Z,13.11
2017-10-11T06:15:24.625Z,13.15
2017-10-11T06:17:52.993Z,13.14
2017-10-11T06:20:21.634Z,13.20
2017-10-11T06:22:50.339Z,13.26
2017-10-11T06:25:18.742Z,13.27
2017-10-11T06:27:47.855Z,13.31
2017-10-11T06:30:17.014Z,13.30
2017-10-11T06:32:45.416Z,13.28
2017-10-11T06:35:14.716Z,13.27
2017-10-11T06:37:44.024Z,13.31
2017-10-11T06:40:13.318Z,13.36
2017-10-11T06:42:42.641Z,13.34
2017-10-11T06:45:11.041Z,13.35
2017-10-11T06:47:39.352Z,13.36
2017-10-11T06:50:07.838Z,13.41
2017-10-11T06:52:36.163Z,13.39
2017-10-11T06:55:04.572Z,13.37
2017-10-11T06:57:32.913Z,13.42
2017-10-11T07:00:01.282Z,13.41
2017-10-11T07:02:30.629Z,13.40
2017-10-11T07:04:59.351Z,13.44
2017-10-11T07:07:28.571Z,13.47
2017-10-11T07:09:57.258Z,13.45
2017-10-11T07:12:26.637Z,13.46
2017-10-11T07:14:54.967Z,13.53
2017-10-11T07:17:23.329Z,13.50
2017-10-11T07:19:51.705Z,13.54
2017-10-11T07:22:21.002Z,13.52
2017-10-11T07:24:53.354Z,13.60
2017-10-11T07:27:21.784Z,13.65
2017-10-11T07:29:50.444Z,13.67
2017-10-11T07:32:19.741Z,13.67
2017-10-11T07:34:49.043Z,13.70
2017-10-11T07:37:18.328Z,13.74
2017-10-11T07:39:47.647Z,13.78
2017-10-11T07:42:16.930Z,13.82
2017-10-11T07:44:45.358Z,13.84
2017-10-11T07:47:13.687Z,13.91
2017-10-11T07:49:42.114Z,13.93
2017-10-11T07:52:13.827Z,13.96
2017-10-11T07:54:42.645Z,14.02
2017-10-11T07:57:10.973Z,14.03
2017-10-11T07:59:39.296Z,14.03
2017-10-11T08:02:08.607Z,14.05
2017-10-11T08:04:37.913Z,14.09
2017-10-11T08:07:06.299Z,14.10
2017-10-11T08:09:34.672Z,14.15
2017-10-11T08:12:03.051Z,14.18
2017-10-11T08:14:31.394Z,14.18
2017-10-11T08:16:59.739Z,14.15
2017-10-11T08:19:29.111Z,14.18
2017-10-11T08:22:01.154Z,14.23
2017-10-11T08:24:30.596Z,14.22
2017-10-11T08:26:59.164Z,14.14
2017-10-11T08:29:29.716Z,14.14
2017-10-11T08:32:00.865Z,14.16
2017-10-11T08:34:31.571Z,14.19
2017-10-11T08:37:02.138Z,14.19
2017-10-11T08:39:32.306Z,14.21
2017-10-11T08:42:05.827Z,14.28
2017-10-11T08:44:35.440Z,14.27
2017-10-11T08:47:04.059Z,14.32
2017-10-11T08:49:33.923Z,14.34
2017-10-11T08:52:04.777Z,14.40
2017-10-11T08:54:33.966Z,14.41
2017-10-11T08:57:03.494Z,14.52
2017-10-11T08:59:35.163Z,14.56
2017-10-11T09:02:05.268Z,14.60
2017-10-11T09:04:35.505Z,14.61
2017-10-11T09:07:06.687Z,14.64
2017-10-11T09:09:37.116Z,14.67
2017-10-11T09:12:07.226Z,14.69
2017-10-11T09:14:36.453Z,14.69
2017-10-11T09:17:05.975Z,14.68
2017-10-11T09:19:35.444Z,14.74
2017-10-11T09:22:04.684Z,14.74
2017-10-11T09:24:34.042Z,14.76
2017-10-11T09:27:02.395Z,14.69
2017-10-11T09:29:30.740Z,14.72
2017-10-11T09:32:00.095Z,14.75
2017-10-11T09:34:28.488Z,14.69
2017-10-11T09:36:56.849Z,14.75
2017-10-11T09:39:25.184Z,14.77
2017-10-11T09:41:55.422Z,14.88
2017-10-11T09:44:23.764Z,14.93
2017-10-11T09:46:52.481Z,14.92
2017-10-11T09:49:21.773Z,15.02
2017-10-11T09:51:51.335Z,14.99
2017-10-11T09:54:19.765Z,14.99
2017-10-11T09:56:49.040Z,15.05
2017-10-11T09:59:17.455Z,15.12
2017-10-11T10:01:46.804Z,15.14
2017-10-11T10:04:15.239Z,15.11
2017-10-11T10:06:45.370Z,15.17
2017-10-11T10:09:14.731Z,15.23
2017-10-11T10:11:43.059Z,15.23
2017-10-11T10:14:11.828Z,15.24
2017-10-11T10:16:40.191Z,15.26
2017-10-11T10:19:08.520Z,15.29
2017-10-11T10:21:36.873Z,15.36
2017-10-11T10:24:05.224Z,15.39
2017-10-11T10:26:33.636Z,15.39
2017-10-11T10:29:01.986Z,15.39
2017-10-11T10:31:31.301Z,15.42
2017-10-11T10:34:00.583Z,15.45
2017-10-11T10:36:29.387Z,15.50
2017-10-11T10:38:57.757Z,15.49
2017-10-11T10:41:27.275Z,15.53
2017-10-11T10:43:56.599Z,15.45
2017-10-11T10:46:24.950Z,15.49
2017-10-11T10:48:54.260Z,15.48
2017-10-11T10:51:23.566Z,15.49
2017-10-11T10:53:52.898Z,15.47
2017-10-11T10:56:21.249Z,15.45
2017-10-11T10:58:50.622Z,15.44
2017-10-11T11:01:20.277Z,15.46
2017-10-11T11:03:48.598Z,15.45
2017-10-11T11:06:16.992Z,15.42
2017-10-11T11:08:45.312Z,15.40
2017-10-11T11:11:13.686Z,15.49
2017-10-11T11:13:42.050Z,15.51
2017-10-11T11:16:11.363Z,15.48
2017-10-11T11:18:40.657Z,15.47
2017-10-11T11:21:10.213Z,15.50
2017-10-11T11:23:38.953Z,15.45
2017-10-11T11:26:08.242Z,15.45
2017-10-11T11:28:36.637Z,15.44
2017-10-11T11:31:05.915Z,15.44
2017-10-11T11:33:34.338Z,15.51
2017-10-11T11:36:02.676Z,15.53
2017-10-11T11:38:31.096Z,15.52
2017-10-11T11:40:59.457Z,15.59
2017-10-11T11:43:28.780Z,15.62
2017-10-11T11:45:57.119Z,15.58
2017-10-11T11:48:25.511Z,15.59
2017-10-11T11:50:54.976Z,15.59
2017-10-11T11:53:23.491Z,15.54
2017-10-11T11:55:51.894Z,15.57
2017-10-11T11:58:21.223Z,15.58
2017-10-11T12:00:49.588Z,15.57
2017-10-11T12:03:17.949Z,15.57
2017-10-11T12:05:47.098Z,15.58
2017-10-11T12:08:15.634Z,15.57
2017-10-11T12:10:44.976Z,15.58
2017-10-11T12:13:18.547Z,15.55
2017-10-11T12:15:47.817Z,15.55
2017-10-11T12:18:16.553Z,15.52
2017-10-11T12:20:44.911Z,15.55
2017-10-11T12:23:14.229Z,15.54
2017-10-11T12:25:42.650Z,15.55
2017-10-11T12:28:11.009Z,15.52
2017-10-11T12:30:39.377Z,15.56
2017-10-11T12:33:07.744Z,15.51
2017-10-11T12:35:36.129Z,15.54
2017-10-11T12:38:04.480Z,15.55
2017-10-11T12:40:33.784Z,15.61
2017-10-11T12:43:02.882Z,15.66
2017-10-11T12:45:32.112Z,15.71
2017-10-11T12:48:00.458Z,15.73
2017-10-11T12:50:29.833Z,15.78
2017-10-11T12:52:59.382Z,15.78
2017-10-11T12:55:38.680Z,15.80
2017-10-11T12:58:11.492Z,15.81
2017-10-11T13:00:54.794Z,15.77
2017-10-11T13:03:30.143Z,15.75
2017-10-11T13:06:05.503Z,15.76
2017-10-11T13:08:40.408Z,15.78
2017-10-11T13:11:15.415Z,15.81
2017-10-11T13:13:43.869Z,15.84
2017-10-11T13:16:13.171Z,15.85
2017-10-11T13:18:42.469Z,15.86
2017-10-11T13:21:11.763Z,15.89
2017-10-11T13:23:41.084Z,15.91
2017-10-11T13:26:10.379Z,15.95
2017-10-11T13:28:39.176Z,15.95
2017-10-11T13:31:07.737Z,15.98
2017-10-11T13:33:37.047Z,15.98
2017-10-11T13:36:06.369Z,15.94
2017-10-11T13:38:34.734Z,15.98
2017-10-11T13:41:03.133Z,16.03
2017-10-11T13:43:31.496Z,16.06
2017-10-11T13:46:00.803Z,16.06
2017-10-11T13:48:29.156Z,16.09
2017-10-11T13:50:59.715Z,16.09
2017-10-11T13:53:29.013Z,16.14
2017-10-11T13:55:57.383Z,16.16
2017-10-11T13:58:26.696Z,16.23
2017-10-11T14:00:55.044Z,16.19
2017-10-11T14:03:23.457Z,16.23
2017-10-11T14:05:51.834Z,16.27
2017-10-11T14:08:21.136Z,16.25
2017-10-11T14:10:50.440Z,16.26
2017-10-11T14:13:19.110Z,16.27
2017-10-11T14:15:48.413Z,16.24
2017-10-11T14:18:17.728Z,16.27
2017-10-11T14:20:46.094Z,16.25
2017-10-11T14:23:15.379Z,16.26
2017-10-11T14:25:43.787Z,16.27
2017-10-11T14:28:14.299Z,16.30
2017-10-11T14:30:44.562Z,16.31
2017-10-11T14:33:12.913Z,16.31
2017-10-11T14:35:42.297Z,16.27
2017-10-11T14:38:10.636Z,16.25
2017-10-11T14:40:39.901Z,16.32
2017-10-11T14:43:09.305Z,16.38
2017-10-11T14:45:37.620Z,16.41
2017-10-11T14:48:06.045Z,16.37
2017-10-11T14:50:34.372Z,16.36
2017-10-11T14:53:02.747Z,16.39
2017-10-11T14:55:31.081Z,16.39
2017-10-11T14:57:59.513Z,16.42
2017-10-11T15:00:27.864Z,16.41
2017-10-11T15:02:56.235Z,16.40
2017-10-11T15:05:25.544Z,16.44
2017-10-11T15:07:54.848Z,16.48
2017-10-11T15:10:24.178Z,16.49
2017-10-11T15:12:53.118Z,16.46
2017-10-11T15:15:21.538Z,16.46
2017-10-11T15:17:49.903Z,16.39
2017-10-11T15:20:19.720Z,16.38
2017-10-11T15:22:48.814Z,16.40
2017-10-11T15:25:18.116Z,16.41
2017-10-11T15:27:47.429Z,16.42
2017-10-11T15:30:15.789Z,16.38
2017-10-11T15:32:45.131Z,16.44
2017-10-11T15:35:13.538Z,16.42
2017-10-11T15:37:43.096Z,16.43
2017-10-11T15:40:11.470Z,16.48
2017-10-11T15:42:40.591Z,16.45
2017-10-11T15:45:08.950Z,16.48
2017-10-11T15:47:37.302Z,16.48
2017-10-11T15:50:05.641Z,16.44
2017-10-11T15:52:36.132Z,16.41
2017-10-11T15:55:05.496Z,16.41
2017-10-11T15:57:34.584Z,16.42
2017-10-11T16:00:03.125Z,16.37
2017-10-11T16:02:31.493Z,16.33
2017-10-11T16:05:01.209Z,16.32
2017-10-11T16:07:30.757Z,16.28
2017-10-11T16:10:02.511Z,16.31
2017-10-11T16:12:31.775Z,16.17
2017-10-11T16:15:01.126Z,16.17
2017-10-11T16:17:29.498Z,16.14
2017-10-11T16:19:59.116Z,15.91
2017-10-11T16:22:27.484Z,15.74
2017-10-11T16:24:56.823Z,15.65
2017-10-11T16:27:25.212Z,15.66
2017-10-11T16:29:54.719Z,15.53
2017-10-11T16:32:24.451Z,15.43
2017-10-11T16:34:52.795Z,15.47
2017-10-11T16:37:21.875Z,15.39
2017-10-11T16:39:50.771Z,15.31
2017-10-11T16:42:19.108Z,15.35
2017-10-11T16:44:49.369Z,15.30
2017-10-11T16:47:17.730Z,15.28
2017-10-11T16:49:47.022Z,15.27
2017-10-11T16:52:15.835Z,15.24
2017-10-11T16:54:47.865Z,15.28
2017-10-11T16:57:16.216Z,15.18
2017-10-11T16:59:45.751Z,15.02
2017-10-11T17:02:15.069Z,15.02
2017-10-11T17:04:43.415Z,15.02
2017-10-11T17:07:12.747Z,15.03
2017-10-11T17:09:41.471Z,14.99
2017-10-11T17:12:11.048Z,14.87
2017-10-11T17:14:39.410Z,14.72
2017-10-11T17:17:07.798Z,14.72
2017-10-11T17:19:36.194Z,14.61
2017-10-11T17:22:08.631Z,14.51
2017-10-11T17:24:38.048Z,14.41
2017-10-11T17:27:06.605Z,14.32
2017-10-11T17:29:36.176Z,14.30
2017-10-11T17:32:04.603Z,14.16
2017-10-11T17:34:32.986Z,14.16
2017-10-11T17:37:01.402Z,14.21
2017-10-11T17:39:30.033Z,14.24
2017-10-11T17:41:58.437Z,14.12
2017-10-11T17:44:28.069Z,13.92
2017-10-11T17:46:56.394Z,13.81
2017-10-11T17:49:24.816Z,13.93
2017-10-11T17:51:53.209Z,13.82
2017-10-11T17:54:22.747Z,13.70
2017-10-11T17:56:51.159Z,13.68
2017-10-11T17:59:20.953Z,13.48
2017-10-11T18:01:49.411Z,13.42
2017-10-11T18:04:17.740Z,13.47
2017-10-11T18:06:47.180Z,13.36
2017-10-11T18:09:15.525Z,13.41
2017-10-11T18:11:43.887Z,13.33
2017-10-11T18:14:12.272Z,13.29
2017-10-11T18:16:40.624Z,13.34
2017-10-11T18:19:08.990Z,13.14
2017-10-11T18:21:37.337Z,13.17
2017-10-11T18:24:07.040Z,13.18
2017-10-11T18:26:39.009Z,13.00
2017-10-11T18:29:08.627Z,12.93
2017-10-11T18:31:36.981Z,12.90
2017-10-11T18:34:06.264Z,12.96
2017-10-11T18:36:35.017Z,12.99
2017-10-11T18:39:03.369Z,12.94
2017-10-11T18:41:31.760Z,12.93
2017-10-11T18:44:00.126Z,12.76
2017-10-11T18:46:30.152Z,12.63
2017-10-11T18:48:58.487Z,12.63
2017-10-11T18:51:27.630Z,12.69
2017-10-11T18:53:56.196Z,12.76
2017-10-11T18:56:25.442Z,12.52
2017-10-11T18:58:57.194Z,12.42
2017-10-11T19:01:25.553Z,12.45
2017-10-11T19:03:55.128Z,12.40
2017-10-11T19:06:24.429Z,12.32
2017-10-11T19:08:53.159Z,12.19
2017-10-11T19:11:21.562Z,12.21
2017-10-11T19:13:49.939Z,12.34
2017-10-11T19:16:18.320Z,12.11
2017-10-11T19:18:46.692Z,12.15
2017-10-11T19:21:16.389Z,12.04
2017-10-11T19:23:44.717Z,11.98
2017-10-11T19:26:13.100Z,12.05
2017-10-11T19:28:41.461Z,11.96
2017-10-11T19:31:11.665Z,11.84
2017-10-11T19:33:40.034Z,11.95
2017-10-11T19:36:09.114Z,11.87
2017-10-11T19:38:38.619Z,11.88
2017-10-11T19:41:07.927Z,11.91
2017-10-11T19:43:36.310Z,11.88
2017-10-11T19:46:04.705Z,11.78
2017-10-11T19:48:33.067Z,11.87
2017-10-11T19:51:01.446Z,11.77
2017-10-11T19:53:30.749Z,11.84
2017-10-11T19:56:00.325Z,11.66
2017-10-11T19:58:28.810Z,11.66
2017-10-11T20:00:57.154Z,11.56
2017-10-11T20:03:25.574Z,11.59
2017-10-11T20:05:53.908Z,11.51
2017-10-11T20:08:22.286Z,11.42
2017-10-11T20:10:50.662Z,11.52
2017-10-11T20:13:19.064Z,11.53
2017-10-11T20:15:47.429Z,11.44
2017-10-11T20:18:15.760Z,11.57
2017-10-11T20:20:45.096Z,11.44
2017-10-11T20:23:13.423Z,11.52
2017-10-11T20:25:41.843Z,11.42
2017-10-11T20:28:10.220Z,11.31
2017-10-11T20:30:38.618Z,11.27
2017-10-11T20:33:07.887Z,11.33
2017-10-11T20:35:37.184Z,11.29
2017-10-11T20:38:06.504Z,11.20
2017-10-11T20:40:34.863Z,11.30
2017-10-11T20:43:03.860Z,11.24
2017-10-11T20:45:33.162Z,11.27
2017-10-11T20:48:02.480Z,11.03
2017-10-11T20:50:32.487Z,11.14
2017-10-11T20:53:01.720Z,11.20
2017-10-11T20:55:30.078Z,11.10
2017-10-11T20:57:59.377Z,11.09
2017-10-11T21:00:29.059Z,11.11
2017-10-11T21:02:58.594Z,11.07
2017-10-11T21:05:27.929Z,11.05
2017-10-11T21:07:56.379Z,10.97
2017-10-11T21:10:25.564Z,10.96
2017-10-11T21:12:53.903Z,11.06
2017-10-11T21:15:22.346Z,11.01
2017-10-11T21:17:50.724Z,11.10
2017-10-11T21:20:19.083Z,11.19
2017-10-11T21:22:48.190Z,11.19
2017-10-11T21:25:17.422Z,11.13
2017-10-11T21:27:45.814Z,11.16
2017-10-11T21:30:14.162Z,11.26
2017-10-11T21:32:42.515Z,11.20
2017-10-11T21:35:11.870Z,11.10
2017-10-11T21:37:40.325Z,11.06
2017-10-11T21:40:08.996Z,11.05
2017-10-11T21:42:37.328Z,11.13
2017-10-11T21:45:05.662Z,11.08
2017-10-11T21:47:34.986Z,11.10
2017-10-11T21:50:03.332Z,11.09
2017-10-11T21:52:32.657Z,11.16
2017-10-11T21:55:01.034Z,11.21
2017-10-11T21:57:30.589Z,11.10
2017-10-11T21:59:59.010Z,11.03
2017-10-11T22:02:28.306Z,11.11
2017-10-11T22:04:57.615Z,11.04
2017-10-11T22:07:30.447Z,10.95
2017-10-11T22:09:58.980Z,10.95
2017-10-11T22:12:28.329Z,10.85
2017-10-11T22:15:01.158Z,10.95
2017-10-11T22:17:29.585Z,10.83
2017-10-11T22:19:58.085Z,10.85
2017-10-11T22:22:26.433Z,10.86
2017-10-11T22:24:55.717Z,10.78
2017-10-11T22:27:25.038Z,10.75
2017-10-11T22:29:53.397Z,10.75
2017-10-11T22:32:21.780Z,10.85
2017-10-11T22:34:51.063Z,10.79
2017-10-11T22:37:19.462Z,10.71
2017-10-11T22:39:48.787Z,10.69
2017-10-11T22:42:17.134Z,10.68
2017-10-11T22:44:46.491Z,10.65
2017-10-11T22:47:19.136Z,10.58
2017-10-11T22:49:48.114Z,10.60
2017-10-11T22:52:17.342Z,10.67
2017-10-11T22:54:46.519Z,10.58
2017-10-11T22:57:14.770Z,10.57
2017-10-11T22:59:44.224Z,10.55
2017-10-11T23:02:12.506Z,10.54
2017-10-11T23:04:40.848Z,10.60
2017-10-11T23:07:10.105Z,10.68
2017-10-11T23:09:38.555Z,10.60
2017-10-11T23:12:06.883Z,10.59
2017-10-11T23:14:35.260Z,10.52
2017-10-11T23:17:03.628Z,10.54
2017-10-11T23:19:32.016Z,10.49
2017-10-11T23:22:00.427Z,10.48
2017-10-11T23:24:28.768Z,10.46
2017-10-11T23:26:57.168Z,10.44
2017-10-11T23:29:25.849Z,10.43
2017-10-11T23:31:54.187Z,10.40
2017-10-11T23:34:23.500Z,10.41
2017-10-11T23:36:51.895Z,10.25
2017-10-11T23:39:20.279Z,10.41
2017-10-11T23:41:48.681Z,10.33
2017-10-11T23:44:17.049Z,10.40
2017-10-11T23:46:45.811Z,10.46
2017-10-11T23:49:14.221Z,10.44
2017-10-11T23:51:42.503Z,10.29
2017-10-11T23:54:10.858Z,10.44
2017-10-11T23:56:39.257Z,10.39
2017-10-11T23:59:07.619Z,10.46
